createdAt,value
2019-03-30T00:00:03.815Z,24
2019-03-30T00:01:01.595Z,26
2019-03-30T00:02:01.926Z,23
2019-03-30T00:03:02.078Z,23
2019-03-30T00:04:02.324Z,25
2019-03-30T00:05:01.678Z,23
2019-03-30T00:06:01.844Z,25
2019-03-30T00:07:02.063Z,23
2019-03-30T00:08:02.301Z,22
2019-03-30T00:09:01.673Z,23
2019-03-30T00:10:01.951Z,22
2019-03-30T00:11:02.055Z,22
2019-03-30T00:12:02.320Z,23
2019-03-30T00:13:01.510Z,23
2019-03-30T00:14:01.756Z,24
2019-03-30T00:15:02.079Z,22
2019-03-30T00:16:02.196Z,25
2019-03-30T00:17:02.363Z,25
2019-03-30T00:18:01.416Z,22
2019-03-30T00:19:01.699Z,24
2019-03-30T00:20:01.506Z,22
2019-03-30T00:21:01.642Z,24
2019-03-30T00:22:01.963Z,24
2019-03-30T00:23:02.186Z,24
2019-03-30T00:24:01.490Z,24
2019-03-30T00:25:01.643Z,22
2019-03-30T00:26:01.861Z,25
2019-03-30T00:27:02.064Z,21
2019-03-30T00:28:02.263Z,25
2019-03-30T00:29:01.460Z,25
2019-03-30T00:30:01.718Z,22
2019-03-30T00:31:01.931Z,22
2019-03-30T00:32:02.150Z,25
2019-03-30T00:33:01.466Z,24
2019-03-30T00:34:01.625Z,23
2019-03-30T00:35:01.857Z,25
2019-03-30T00:36:02.130Z,25
2019-03-30T00:37:02.297Z,23
2019-03-30T00:38:01.564Z,25
2019-03-30T00:39:01.436Z,23
2019-03-30T00:40:02.161Z,22
2019-03-30T00:41:02.404Z,23
2019-03-30T00:42:01.610Z,23
2019-03-30T00:43:01.947Z,25
2019-03-30T00:44:01.694Z,26
2019-03-30T00:45:02.039Z,23
2019-03-30T00:46:02.254Z,22
2019-03-30T00:47:01.557Z,26
2019-03-30T00:48:01.770Z,25
2019-03-30T00:49:01.992Z,22
2019-03-30T00:50:02.318Z,24
2019-03-30T00:51:02.279Z,26
2019-03-30T00:52:01.475Z,23
2019-03-30T00:53:01.813Z,27
2019-03-30T00:54:01.998Z,23
2019-03-30T00:55:02.301Z,25
2019-03-30T00:56:01.452Z,25
2019-03-30T00:57:01.686Z,23
2019-03-30T00:58:01.850Z,24
2019-03-30T00:59:02.049Z,24
2019-03-30T01:00:04.481Z,23
2019-03-30T01:01:02.347Z,25
2019-03-30T01:02:01.549Z,23
2019-03-30T01:03:01.852Z,28
2019-03-30T01:04:02.056Z,24
2019-03-30T01:05:02.386Z,21
2019-03-30T01:06:01.527Z,22
2019-03-30T01:07:01.749Z,25
2019-03-30T01:08:02.003Z,27
2019-03-30T01:09:01.649Z,23
2019-03-30T01:10:02.280Z,24
2019-03-30T01:11:01.522Z,22
2019-03-30T01:12:01.737Z,23
2019-03-30T01:13:01.935Z,26
2019-03-30T01:14:02.166Z,25
2019-03-30T01:15:02.396Z,25
2019-03-30T01:16:01.596Z,27
2019-03-30T01:17:01.909Z,23
2019-03-30T01:18:02.079Z,25
2019-03-30T01:19:02.379Z,24
2019-03-30T01:20:03.267Z,23
2019-03-30T01:21:01.721Z,25
2019-03-30T01:22:01.966Z,26
2019-03-30T01:23:02.153Z,24
2019-03-30T01:24:02.431Z,25
2019-03-30T01:25:01.658Z,26
2019-03-30T01:26:01.874Z,26
2019-03-30T01:27:02.188Z,24
2019-03-30T01:28:02.405Z,25
2019-03-30T01:29:01.598Z,27
2019-03-30T01:30:02.379Z,24
2019-03-30T01:31:01.529Z,28
2019-03-30T01:32:01.734Z,24
2019-03-30T01:33:01.917Z,28
2019-03-30T01:34:02.196Z,28
2019-03-30T01:35:02.457Z,24
2019-03-30T01:36:01.657Z,24
2019-03-30T01:37:01.904Z,26
2019-03-30T01:38:02.097Z,25
2019-03-30T01:39:02.357Z,25
2019-03-30T01:40:01.583Z,25
2019-03-30T01:41:01.797Z,27
2019-03-30T01:42:01.740Z,25
2019-03-30T01:43:02.036Z,26
2019-03-30T01:44:02.304Z,21
2019-03-30T01:45:01.506Z,25
2019-03-30T01:46:01.776Z,25
2019-03-30T01:47:01.958Z,27
2019-03-30T01:48:02.209Z,28
2019-03-30T01:49:01.439Z,24
2019-03-30T01:50:01.703Z,22
2019-03-30T01:51:01.864Z,26
2019-03-30T01:52:02.063Z,27
2019-03-30T01:53:02.217Z,25
2019-03-30T01:54:01.411Z,25
2019-03-30T01:55:01.728Z,26
2019-03-30T01:56:01.894Z,27
2019-03-30T01:57:02.201Z,23
2019-03-30T01:58:02.388Z,26
2019-03-30T01:59:01.599Z,27
2019-03-30T02:00:03.765Z,26
2019-03-30T02:01:01.874Z,26
2019-03-30T02:02:02.054Z,26
2019-03-30T02:03:02.282Z,29
2019-03-30T02:04:01.540Z,27
2019-03-30T02:05:01.809Z,26
2019-03-30T02:06:02.108Z,27
2019-03-30T02:07:02.237Z,26
2019-03-30T02:08:01.431Z,29
2019-03-30T02:09:01.632Z,24
2019-03-30T02:10:01.917Z,26
2019-03-30T02:11:02.257Z,25
2019-03-30T02:12:02.394Z,25
2019-03-30T02:13:01.540Z,24
2019-03-30T02:14:01.804Z,26
2019-03-30T02:15:02.055Z,24
2019-03-30T02:16:02.355Z,26
2019-03-30T02:17:01.484Z,26
2019-03-30T02:18:01.673Z,27
2019-03-30T02:19:01.928Z,30
2019-03-30T02:20:02.219Z,26
2019-03-30T02:21:02.473Z,27
2019-03-30T02:22:01.619Z,26
2019-03-30T02:23:01.888Z,24
2019-03-30T02:24:02.189Z,26
2019-03-30T02:25:02.496Z,27
2019-03-30T02:26:01.675Z,30
2019-03-30T02:27:01.900Z,25
2019-03-30T02:28:02.049Z,24
2019-03-30T02:29:02.325Z,25
2019-03-30T02:30:01.609Z,26
2019-03-30T02:31:01.837Z,28
2019-03-30T02:32:02.078Z,27
2019-03-30T02:33:02.250Z,28
2019-03-30T02:34:01.459Z,28
2019-03-30T02:35:02.133Z,26
2019-03-30T02:36:02.106Z,26
2019-03-30T02:37:02.233Z,28
2019-03-30T02:38:01.427Z,28
2019-03-30T02:39:01.661Z,24
2019-03-30T02:40:02.580Z,26
2019-03-30T02:41:02.266Z,27
2019-03-30T02:42:01.485Z,28
2019-03-30T02:43:01.818Z,24
2019-03-30T02:44:01.948Z,29
2019-03-30T02:45:02.194Z,28
2019-03-30T02:46:02.353Z,26
2019-03-30T02:47:01.643Z,26
2019-03-30T02:48:01.787Z,27
2019-03-30T02:49:02.052Z,30
2019-03-30T02:50:02.361Z,27
2019-03-30T02:51:01.597Z,27
2019-03-30T02:52:01.891Z,26
2019-03-30T02:53:02.013Z,27
2019-03-30T02:54:02.310Z,27
2019-03-30T02:55:01.473Z,29
2019-03-30T02:56:01.652Z,27
2019-03-30T02:57:01.977Z,25
2019-03-30T02:58:02.157Z,25
2019-03-30T02:59:02.330Z,26
2019-03-30T03:00:03.396Z,26
2019-03-30T03:01:02.189Z,24
2019-03-30T03:02:01.401Z,30
2019-03-30T03:03:01.753Z,27
2019-03-30T03:04:01.903Z,28
2019-03-30T03:05:02.196Z,29
2019-03-30T03:06:01.418Z,27
2019-03-30T03:07:01.595Z,26
2019-03-30T03:08:01.847Z,28
2019-03-30T03:09:02.038Z,30
2019-03-30T03:10:02.257Z,26
2019-03-30T03:11:01.468Z,25
2019-03-30T03:12:01.745Z,27
2019-03-30T03:13:01.993Z,25
2019-03-30T03:14:02.192Z,26
2019-03-30T03:15:01.598Z,28
2019-03-30T03:16:01.794Z,29
2019-03-30T03:17:02.018Z,27
2019-03-30T03:18:02.259Z,24
2019-03-30T03:19:01.505Z,27
2019-03-30T03:20:01.717Z,27
2019-03-30T03:21:07.801Z,27
2019-03-30T03:22:02.210Z,25
2019-03-30T03:23:02.357Z,25
2019-03-30T03:24:01.595Z,26
2019-03-30T03:25:01.853Z,27
2019-03-30T03:26:02.135Z,29
2019-03-30T03:27:02.343Z,28
2019-03-30T03:28:01.539Z,25
2019-03-30T03:29:01.746Z,30
2019-03-30T03:30:02.073Z,28
2019-03-30T03:31:02.236Z,24
2019-03-30T03:32:02.384Z,28
2019-03-30T03:33:01.599Z,26
2019-03-30T03:34:02.128Z,28
2019-03-30T03:35:02.319Z,26
2019-03-30T03:36:02.256Z,29
2019-03-30T03:37:06.058Z,25
2019-03-30T03:38:06.317Z,26
2019-03-30T03:39:02.034Z,23
2019-03-30T03:40:02.231Z,28
2019-03-30T03:41:01.488Z,28
2019-03-30T03:42:01.690Z,28
2019-03-30T03:43:01.870Z,27
2019-03-30T03:44:02.124Z,26
2019-03-30T03:45:02.367Z,27
2019-03-30T03:46:01.601Z,31
2019-03-30T03:47:01.905Z,26
2019-03-30T03:48:02.087Z,27
2019-03-30T03:49:01.973Z,25
2019-03-30T03:50:01.775Z,30
2019-03-30T03:51:01.995Z,28
2019-03-30T03:52:02.317Z,24
2019-03-30T03:53:01.507Z,27
2019-03-30T03:54:01.842Z,31
2019-03-30T03:55:02.120Z,27
2019-03-30T03:56:02.341Z,30
2019-03-30T03:57:01.677Z,27
2019-03-30T03:58:01.798Z,26
2019-03-30T03:59:02.036Z,28
2019-03-30T04:00:02.298Z,25
2019-03-30T04:01:01.453Z,27
2019-03-30T04:02:01.702Z,28
2019-03-30T04:03:01.921Z,25
2019-03-30T04:04:02.202Z,26
2019-03-30T04:05:02.437Z,25
2019-03-30T04:06:01.671Z,28
2019-03-30T04:07:01.997Z,24
2019-03-30T04:08:02.195Z,25
2019-03-30T04:09:02.374Z,30
2019-03-30T04:10:01.651Z,30
2019-03-30T04:11:01.900Z,28
2019-03-30T04:12:02.199Z,28
2019-03-30T04:13:06.768Z,29
2019-03-30T04:14:01.638Z,28
2019-03-30T04:15:01.877Z,25
2019-03-30T04:16:02.089Z,27
2019-03-30T04:17:02.318Z,27
2019-03-30T04:18:01.587Z,25
2019-03-30T04:19:01.773Z,30
2019-03-30T04:20:02.020Z,27
2019-03-30T04:21:02.309Z,32
2019-03-30T04:22:01.448Z,29
2019-03-30T04:23:01.665Z,25
2019-03-30T04:24:01.883Z,27
2019-03-30T04:25:02.244Z,28
2019-03-30T04:26:01.434Z,27
2019-03-30T04:27:01.609Z,31
2019-03-30T04:28:01.846Z,31
2019-03-30T04:29:02.064Z,29
2019-03-30T04:30:02.365Z,28
2019-03-30T04:31:01.605Z,27
2019-03-30T04:32:01.786Z,27
2019-03-30T04:33:02.115Z,29
2019-03-30T04:34:02.429Z,28
2019-03-30T04:35:01.653Z,28
2019-03-30T04:36:01.865Z,28
2019-03-30T04:37:02.112Z,30
2019-03-30T04:38:02.304Z,29
2019-03-30T04:39:01.506Z,28
2019-03-30T04:40:01.693Z,30
2019-03-30T04:41:01.997Z,30
2019-03-30T04:42:01.440Z,27
2019-03-30T04:43:01.601Z,25
2019-03-30T04:44:02.093Z,30
2019-03-30T04:45:02.326Z,27
2019-03-30T04:46:02.115Z,29
2019-03-30T04:47:06.886Z,29
2019-03-30T04:48:01.495Z,30
2019-03-30T04:49:01.792Z,28
2019-03-30T04:50:02.058Z,31
2019-03-30T04:51:02.182Z,25
2019-03-30T04:52:02.390Z,31
2019-03-30T04:53:01.697Z,28
2019-03-30T04:54:01.866Z,28
2019-03-30T04:55:02.084Z,30
2019-03-30T04:56:02.375Z,25
2019-03-30T04:57:01.547Z,27
2019-03-30T04:58:01.848Z,26
2019-03-30T04:59:02.064Z,26
2019-03-30T05:00:04.011Z,31
2019-03-30T05:01:01.828Z,26
2019-03-30T05:02:02.100Z,28
2019-03-30T05:03:02.246Z,25
2019-03-30T05:04:01.450Z,27
2019-03-30T05:05:01.655Z,29
2019-03-30T05:06:01.936Z,26
2019-03-30T05:07:02.147Z,25
2019-03-30T05:08:02.430Z,27
2019-03-30T05:09:01.655Z,28
2019-03-30T05:10:01.979Z,28
2019-03-30T05:11:02.146Z,31
2019-03-30T05:12:02.367Z,29
2019-03-30T05:13:01.613Z,28
2019-03-30T05:14:01.886Z,28
2019-03-30T05:15:02.151Z,31
2019-03-30T05:16:01.491Z,30
2019-03-30T05:17:01.612Z,32
2019-03-30T05:18:01.870Z,28
2019-03-30T05:19:02.074Z,30
2019-03-30T05:20:02.327Z,30
2019-03-30T05:21:01.589Z,26
2019-03-30T05:22:12.068Z,30
2019-03-30T05:23:01.875Z,29
2019-03-30T05:24:02.102Z,30
2019-03-30T05:25:02.431Z,27
2019-03-30T05:26:02.382Z,28
2019-03-30T05:27:01.574Z,27
2019-03-30T05:28:01.788Z,27
2019-03-30T05:29:01.970Z,26
2019-03-30T05:30:02.227Z,30
2019-03-30T05:31:02.394Z,29
2019-03-30T05:32:01.635Z,29
2019-03-30T05:33:05.980Z,27
2019-03-30T05:34:02.132Z,28
2019-03-30T05:35:02.345Z,30
2019-03-30T05:36:01.626Z,27
2019-03-30T05:37:01.829Z,29
2019-03-30T05:38:02.068Z,29
2019-03-30T05:39:02.301Z,26
2019-03-30T05:40:01.510Z,27
2019-03-30T05:41:01.813Z,29
2019-03-30T05:42:01.921Z,23
2019-03-30T05:43:02.166Z,28
2019-03-30T05:44:01.471Z,27
2019-03-30T05:45:01.655Z,29
2019-03-30T05:46:01.814Z,27
2019-03-30T05:47:02.111Z,30
2019-03-30T05:48:02.322Z,25
2019-03-30T05:49:01.567Z,27
2019-03-30T05:50:01.793Z,29
2019-03-30T05:51:01.990Z,27
2019-03-30T05:52:02.110Z,30
2019-03-30T05:53:02.387Z,29
2019-03-30T05:54:01.568Z,28
2019-03-30T05:55:01.885Z,29
2019-03-30T05:56:02.070Z,29
2019-03-30T05:57:02.294Z,29
2019-03-30T05:58:01.981Z,28
2019-03-30T05:59:02.149Z,29
2019-03-30T06:00:04.221Z,27
2019-03-30T06:01:01.885Z,24
2019-03-30T06:02:02.067Z,30
2019-03-30T06:03:02.338Z,25
2019-03-30T06:04:01.552Z,30
2019-03-30T06:05:03.778Z,26
2019-03-30T06:06:02.023Z,27
2019-03-30T06:07:02.183Z,29
2019-03-30T06:08:01.550Z,26
2019-03-30T06:09:01.719Z,28
2019-03-30T06:10:01.959Z,29
2019-03-30T06:11:02.157Z,27
2019-03-30T06:12:02.384Z,28
2019-03-30T06:13:01.693Z,27
2019-03-30T06:14:01.851Z,28
2019-03-30T06:15:02.171Z,28
2019-03-30T06:16:01.467Z,29
2019-03-30T06:17:01.635Z,29
2019-03-30T06:18:01.878Z,30
2019-03-30T06:19:02.170Z,27
2019-03-30T06:20:02.406Z,27
2019-03-30T06:21:01.589Z,27
2019-03-30T06:22:01.819Z,30
2019-03-30T06:23:02.131Z,25
2019-03-30T06:24:02.258Z,25
2019-03-30T06:25:01.479Z,28
2019-03-30T06:26:01.770Z,24
2019-03-30T06:27:01.971Z,28
2019-03-30T06:28:02.201Z,28
2019-03-30T06:29:02.296Z,27
2019-03-30T06:30:01.574Z,29
2019-03-30T06:31:02.245Z,26
2019-03-30T06:32:01.494Z,28
2019-03-30T06:33:01.713Z,27
2019-03-30T06:34:01.862Z,28
2019-03-30T06:35:02.148Z,32
2019-03-30T06:36:02.277Z,37
2019-03-30T06:37:02.052Z,42
2019-03-30T06:38:02.209Z,42
2019-03-30T06:39:02.384Z,43
2019-03-30T06:40:02.021Z,40
2019-03-30T06:41:02.038Z,43
2019-03-30T06:42:02.252Z,43
2019-03-30T06:43:01.515Z,43
2019-03-30T06:44:01.744Z,40
2019-03-30T06:45:01.823Z,41
2019-03-30T06:46:01.883Z,39
2019-03-30T06:47:02.100Z,41
2019-03-30T06:48:02.312Z,38
2019-03-30T06:49:01.535Z,37
2019-03-30T06:50:01.792Z,36
2019-03-30T06:51:02.076Z,38
2019-03-30T06:52:02.281Z,35
2019-03-30T06:53:01.507Z,35
2019-03-30T06:54:01.749Z,35
2019-03-30T06:55:01.901Z,37
2019-03-30T06:56:01.903Z,38
2019-03-30T06:57:02.023Z,36
2019-03-30T06:58:02.257Z,39
2019-03-30T06:59:01.452Z,33
2019-03-30T07:00:03.691Z,33
2019-03-30T07:01:01.554Z,37
2019-03-30T07:02:01.732Z,35
2019-03-30T07:03:02.052Z,35
2019-03-30T07:04:02.361Z,35
2019-03-30T07:05:01.485Z,36
2019-03-30T07:06:01.774Z,32
2019-03-30T07:07:01.924Z,33
2019-03-30T07:08:02.162Z,35
2019-03-30T07:09:02.490Z,33
2019-03-30T07:10:01.683Z,36
2019-03-30T07:11:01.814Z,33
2019-03-30T07:12:02.065Z,32
2019-03-30T07:13:02.232Z,33
2019-03-30T07:14:01.453Z,34
2019-03-30T07:15:01.789Z,32
2019-03-30T07:16:01.869Z,37
2019-03-30T07:17:02.003Z,32
2019-03-30T07:18:02.015Z,33
2019-03-30T07:19:02.249Z,33
2019-03-30T07:20:02.238Z,34
2019-03-30T07:21:02.408Z,35
2019-03-30T07:22:01.650Z,30
2019-03-30T07:23:11.579Z,32
2019-03-30T07:24:07.608Z,33
2019-03-30T07:25:02.286Z,31
2019-03-30T07:26:01.508Z,34
2019-03-30T07:27:01.838Z,33
2019-03-30T07:28:01.980Z,32
2019-03-30T07:29:02.160Z,33
2019-03-30T07:30:02.361Z,31
2019-03-30T07:31:01.586Z,31
2019-03-30T07:32:01.912Z,33
2019-03-30T07:33:01.616Z,33
2019-03-30T07:34:01.814Z,32
2019-03-30T07:35:02.055Z,33
2019-03-30T07:36:02.344Z,34
2019-03-30T07:37:01.624Z,29
2019-03-30T07:38:01.915Z,29
2019-03-30T07:39:02.037Z,34
2019-03-30T07:40:02.326Z,31
2019-03-30T07:41:01.688Z,32
2019-03-30T07:42:01.699Z,30
2019-03-30T07:43:01.908Z,33
2019-03-30T07:44:01.939Z,32
2019-03-30T07:45:02.186Z,31
2019-03-30T07:46:01.419Z,28
2019-03-30T07:47:01.667Z,30
2019-03-30T07:48:01.936Z,32
2019-03-30T07:49:02.141Z,29
2019-03-30T07:50:02.422Z,28
2019-03-30T07:51:01.668Z,31
2019-03-30T07:52:01.886Z,29
2019-03-30T07:53:02.175Z,30
2019-03-30T07:54:02.380Z,30
2019-03-30T07:55:01.619Z,29
2019-03-30T07:56:08.202Z,31
2019-03-30T07:57:06.236Z,22
2019-03-30T07:58:01.909Z,27
2019-03-30T07:59:02.095Z,29
2019-03-30T08:00:03.454Z,30
2019-03-30T08:01:02.341Z,25
2019-03-30T08:02:01.541Z,30
2019-03-30T08:03:01.782Z,30
2019-03-30T08:04:02.091Z,32
2019-03-30T08:05:02.371Z,35
2019-03-30T08:06:01.567Z,32
2019-03-30T08:07:01.863Z,32
2019-03-30T08:08:02.157Z,29
2019-03-30T08:09:01.438Z,37
2019-03-30T08:10:01.735Z,40
2019-03-30T08:11:01.924Z,42
2019-03-30T08:12:02.179Z,37
2019-03-30T08:13:02.348Z,38
2019-03-30T08:14:01.572Z,37
2019-03-30T08:15:01.816Z,34
2019-03-30T08:16:01.944Z,35
2019-03-30T08:17:02.296Z,30
2019-03-30T08:18:01.510Z,33
2019-03-30T08:19:01.674Z,35
2019-03-30T08:20:01.976Z,33
2019-03-30T08:21:02.146Z,33
2019-03-30T08:22:02.317Z,32
2019-03-30T08:23:01.633Z,33
2019-03-30T08:24:01.862Z,33
2019-03-30T08:25:02.132Z,33
2019-03-30T08:26:02.339Z,32
2019-03-30T08:27:01.619Z,33
2019-03-30T08:28:01.823Z,32
2019-03-30T08:29:02.056Z,32
2019-03-30T08:30:02.318Z,31
2019-03-30T08:31:01.545Z,38
2019-03-30T08:32:01.824Z,41
2019-03-30T08:33:02.034Z,43
2019-03-30T08:34:02.292Z,42
2019-03-30T08:35:01.531Z,43
2019-03-30T08:36:01.773Z,41
2019-03-30T08:37:02.065Z,44
2019-03-30T08:38:02.203Z,41
2019-03-30T08:39:01.467Z,44
2019-03-30T08:40:01.711Z,45
2019-03-30T08:41:01.852Z,45
2019-03-30T08:42:01.885Z,46
2019-03-30T08:43:02.077Z,45
2019-03-30T08:44:02.389Z,43
2019-03-30T08:45:03.522Z,45
2019-03-30T08:46:01.975Z,42
2019-03-30T08:47:02.273Z,46
2019-03-30T08:48:02.358Z,44
2019-03-30T08:49:01.547Z,46
2019-03-30T08:50:01.914Z,44
2019-03-30T08:51:02.090Z,45
2019-03-30T08:52:02.361Z,45
2019-03-30T08:53:01.629Z,43
2019-03-30T08:54:01.739Z,46
2019-03-30T08:55:02.019Z,45
2019-03-30T08:56:02.264Z,45
2019-03-30T08:57:01.505Z,46
2019-03-30T08:58:01.680Z,46
2019-03-30T08:59:01.962Z,44
2019-03-30T09:00:05.845Z,49
2019-03-30T09:01:01.629Z,47
2019-03-30T09:02:01.876Z,45
2019-03-30T09:03:02.019Z,43
2019-03-30T09:04:02.199Z,44
2019-03-30T09:05:02.382Z,47
2019-03-30T09:06:01.516Z,46
2019-03-30T09:07:01.623Z,47
2019-03-30T09:08:01.776Z,44
2019-03-30T09:09:02.084Z,48
2019-03-30T09:10:02.303Z,50
2019-03-30T09:11:01.415Z,48
2019-03-30T09:12:01.563Z,45
2019-03-30T09:13:01.820Z,47
2019-03-30T09:14:02.075Z,47
2019-03-30T09:15:01.520Z,48
2019-03-30T09:16:01.859Z,47
2019-03-30T09:17:02.165Z,50
2019-03-30T09:18:02.273Z,46
2019-03-30T09:19:01.471Z,48
2019-03-30T09:20:01.783Z,48
2019-03-30T09:21:02.005Z,50
2019-03-30T09:22:02.200Z,47
2019-03-30T09:23:01.426Z,48
2019-03-30T09:24:09.541Z,50
2019-03-30T09:25:01.908Z,46
2019-03-30T09:26:02.071Z,49
2019-03-30T09:27:02.197Z,47
2019-03-30T09:28:01.415Z,47
2019-03-30T09:29:01.602Z,48
2019-03-30T09:30:01.970Z,45
2019-03-30T09:31:02.103Z,51
2019-03-30T09:32:13.734Z,48
2019-03-30T09:33:01.446Z,48
2019-03-30T09:34:01.685Z,49
2019-03-30T09:35:01.990Z,51
2019-03-30T09:36:02.183Z,48
2019-03-30T09:37:02.392Z,46
2019-03-30T09:38:01.504Z,49
2019-03-30T09:39:01.696Z,50
2019-03-30T09:40:02.016Z,48
2019-03-30T09:41:01.946Z,51
2019-03-30T09:42:02.112Z,49
2019-03-30T09:43:02.334Z,50
2019-03-30T09:44:01.576Z,47
2019-03-30T09:45:01.785Z,49
2019-03-30T09:46:02.038Z,48
2019-03-30T09:47:02.127Z,50
2019-03-30T09:48:02.325Z,49
2019-03-30T09:49:01.519Z,50
2019-03-30T09:50:02.742Z,47
2019-03-30T09:51:02.099Z,48
2019-03-30T09:52:02.261Z,49
2019-03-30T09:53:01.490Z,46
2019-03-30T09:54:01.705Z,50
2019-03-30T09:55:01.800Z,50
2019-03-30T09:56:02.089Z,49
2019-03-30T09:57:01.949Z,50
2019-03-30T09:58:02.164Z,48
2019-03-30T09:59:02.278Z,50
2019-03-30T10:00:04.005Z,48
2019-03-30T10:01:01.813Z,49
2019-03-30T10:02:01.974Z,49
2019-03-30T10:03:02.205Z,50
2019-03-30T10:04:02.354Z,50
2019-03-30T10:05:01.810Z,50
2019-03-30T10:06:01.847Z,50
2019-03-30T10:07:01.945Z,48
2019-03-30T10:08:01.806Z,50
2019-03-30T10:09:02.085Z,51
2019-03-30T10:10:02.360Z,47
2019-03-30T10:11:01.512Z,50
2019-03-30T10:12:01.671Z,51
2019-03-30T10:13:01.895Z,51
2019-03-30T10:14:02.187Z,51
2019-03-30T10:15:02.389Z,52
2019-03-30T10:16:01.554Z,53
2019-03-30T10:17:01.759Z,50
2019-03-30T10:18:01.948Z,50
2019-03-30T10:19:02.211Z,48
2019-03-30T10:20:04.823Z,49
2019-03-30T10:21:01.622Z,51
2019-03-30T10:22:01.861Z,50
2019-03-30T10:23:01.994Z,49
2019-03-30T10:24:02.252Z,50
2019-03-30T10:25:01.491Z,50
2019-03-30T10:26:01.714Z,52
2019-03-30T10:27:01.890Z,50
2019-03-30T10:28:02.095Z,50
2019-03-30T10:29:02.288Z,48
2019-03-30T10:30:01.617Z,50
2019-03-30T10:31:01.742Z,48
2019-03-30T10:32:01.867Z,49
2019-03-30T10:33:02.133Z,50
2019-03-30T10:34:02.248Z,48
2019-03-30T10:35:01.540Z,51
2019-03-30T10:36:01.833Z,49
2019-03-30T10:37:01.999Z,50
2019-03-30T10:38:02.247Z,50
2019-03-30T10:39:01.459Z,50
2019-03-30T10:40:01.717Z,49
2019-03-30T10:41:01.936Z,49
2019-03-30T10:42:02.037Z,51
2019-03-30T10:43:02.258Z,49
2019-03-30T10:44:01.445Z,51
2019-03-30T10:45:01.644Z,52
2019-03-30T10:46:01.943Z,50
2019-03-30T10:47:02.153Z,51
2019-03-30T10:48:02.373Z,52
2019-03-30T10:49:01.553Z,50
2019-03-30T10:50:01.788Z,49
2019-03-30T10:51:02.063Z,47
2019-03-30T10:52:02.253Z,51
2019-03-30T10:53:01.532Z,50
2019-03-30T10:54:01.687Z,50
2019-03-30T10:55:01.935Z,49
2019-03-30T10:56:02.132Z,52
2019-03-30T10:57:02.391Z,53
2019-03-30T10:58:01.633Z,52
2019-03-30T10:59:01.701Z,53
2019-03-30T11:00:05.763Z,52
2019-03-30T11:01:01.798Z,53
2019-03-30T11:02:02.055Z,52
2019-03-30T11:03:02.252Z,51
2019-03-30T11:04:01.516Z,53
2019-03-30T11:05:01.830Z,51
2019-03-30T11:06:02.037Z,57
2019-03-30T11:07:02.323Z,53
2019-03-30T11:08:01.450Z,57
2019-03-30T11:09:01.637Z,54
2019-03-30T11:10:01.850Z,53
2019-03-30T11:11:01.608Z,53
2019-03-30T11:12:01.793Z,52
2019-03-30T11:13:01.990Z,57
2019-03-30T11:14:02.210Z,52
2019-03-30T11:15:01.547Z,56
2019-03-30T11:16:01.657Z,59
2019-03-30T11:17:01.896Z,57
2019-03-30T11:18:02.134Z,56
2019-03-30T11:19:02.312Z,52
2019-03-30T11:20:01.625Z,59
2019-03-30T11:21:01.844Z,55
2019-03-30T11:22:03.399Z,54
2019-03-30T11:23:02.250Z,55
2019-03-30T11:24:01.585Z,54
2019-03-30T11:25:07.905Z,53
2019-03-30T11:26:01.958Z,52
2019-03-30T11:27:01.862Z,52
2019-03-30T11:28:02.083Z,53
2019-03-30T11:29:02.218Z,53
2019-03-30T11:30:01.548Z,52
2019-03-30T11:31:05.129Z,54
2019-03-30T11:32:01.923Z,57
2019-03-30T11:33:02.112Z,52
2019-03-30T11:34:02.297Z,54
2019-03-30T11:35:01.560Z,51
2019-03-30T11:36:01.789Z,53
2019-03-30T11:37:02.356Z,53
2019-03-30T11:38:02.352Z,55
2019-03-30T11:39:01.916Z,53
2019-03-30T11:40:02.166Z,53
2019-03-30T11:41:02.333Z,53
2019-03-30T11:42:01.486Z,53
2019-03-30T11:43:01.802Z,56
2019-03-30T11:44:01.956Z,54
2019-03-30T11:45:01.944Z,53
2019-03-30T11:46:02.125Z,54
2019-03-30T11:47:01.362Z,54
2019-03-30T11:48:01.656Z,51
2019-03-30T11:49:02.330Z,52
2019-03-30T11:50:01.552Z,52
2019-03-30T11:51:01.687Z,52
2019-03-30T11:52:01.883Z,49
2019-03-30T11:53:02.156Z,52
2019-03-30T11:54:02.280Z,51
2019-03-30T11:55:01.529Z,50
2019-03-30T11:56:01.687Z,50
2019-03-30T11:57:01.949Z,52
2019-03-30T11:58:02.213Z,51
2019-03-30T11:59:02.292Z,52
2019-03-30T12:00:05.336Z,51
2019-03-30T12:01:02.155Z,51
2019-03-30T12:02:02.312Z,50
2019-03-30T12:03:01.540Z,51
2019-03-30T12:04:01.701Z,52
2019-03-30T12:05:02.173Z,51
2019-03-30T12:06:02.240Z,50
2019-03-30T12:07:01.463Z,51
2019-03-30T12:08:01.745Z,49
2019-03-30T12:09:01.844Z,50
2019-03-30T12:10:02.144Z,50
2019-03-30T12:11:02.267Z,51
2019-03-30T12:12:01.438Z,48
2019-03-30T12:13:01.683Z,53
2019-03-30T12:14:01.808Z,49
2019-03-30T12:15:01.970Z,49
2019-03-30T12:16:02.143Z,52
2019-03-30T12:17:01.488Z,51
2019-03-30T12:18:01.651Z,52
2019-03-30T12:19:01.845Z,50
2019-03-30T12:20:02.135Z,51
2019-03-30T12:21:02.356Z,48
2019-03-30T12:22:01.474Z,51
2019-03-30T12:23:01.981Z,49
2019-03-30T12:24:02.164Z,49
2019-03-30T12:25:02.445Z,48
2019-03-30T12:26:01.602Z,48
2019-03-30T12:27:01.795Z,48
2019-03-30T12:28:01.978Z,49
2019-03-30T12:29:01.835Z,49
2019-03-30T12:30:02.294Z,50
2019-03-30T12:31:01.472Z,48
2019-03-30T12:32:01.636Z,47
2019-03-30T12:33:01.818Z,48
2019-03-30T12:34:02.025Z,49
2019-03-30T12:35:02.262Z,48
2019-03-30T12:36:01.417Z,49
2019-03-30T12:37:01.570Z,49
2019-03-30T12:38:01.853Z,50
2019-03-30T12:39:02.163Z,50
2019-03-30T12:40:02.335Z,48
2019-03-30T12:41:01.493Z,48
2019-03-30T12:42:01.725Z,52
2019-03-30T12:43:01.758Z,50
2019-03-30T12:44:02.002Z,51
2019-03-30T12:45:01.994Z,51
2019-03-30T12:46:02.254Z,48
2019-03-30T12:47:02.349Z,47
2019-03-30T12:48:01.537Z,49
2019-03-30T12:49:01.777Z,50
2019-03-30T12:50:02.043Z,50
2019-03-30T12:51:02.129Z,48
2019-03-30T12:52:02.323Z,47
2019-03-30T12:53:01.532Z,50
2019-03-30T12:54:01.774Z,50
2019-03-30T12:55:01.978Z,51
2019-03-30T12:56:02.218Z,48
2019-03-30T12:57:02.123Z,51
2019-03-30T12:58:02.380Z,50
2019-03-30T12:59:01.611Z,50
2019-03-30T13:00:03.954Z,50
2019-03-30T13:01:01.803Z,50
2019-03-30T13:02:01.926Z,51
2019-03-30T13:03:02.115Z,48
2019-03-30T13:04:02.474Z,53
2019-03-30T13:05:01.576Z,53
2019-03-30T13:06:01.816Z,52
2019-03-30T13:07:01.946Z,53
2019-03-30T13:08:02.275Z,52
2019-03-30T13:09:01.942Z,52
2019-03-30T13:10:02.202Z,53
2019-03-30T13:11:01.831Z,52
2019-03-30T13:12:01.981Z,54
2019-03-30T13:13:02.054Z,52
2019-03-30T13:14:02.189Z,55
2019-03-30T13:15:01.522Z,50
2019-03-30T13:16:01.919Z,52
2019-03-30T13:17:02.158Z,50
2019-03-30T13:18:02.376Z,49
2019-03-30T13:19:01.540Z,52
2019-03-30T13:20:01.785Z,51
2019-03-30T13:21:02.005Z,51
2019-03-30T13:22:02.164Z,51
2019-03-30T13:23:01.521Z,51
2019-03-30T13:24:01.675Z,52
2019-03-30T13:25:01.835Z,51
2019-03-30T13:26:03.845Z,51
2019-03-30T13:27:02.330Z,50
2019-03-30T13:28:01.703Z,50
2019-03-30T13:29:01.954Z,49
2019-03-30T13:30:02.188Z,51
2019-03-30T13:31:02.365Z,52
2019-03-30T13:32:01.673Z,52
2019-03-30T13:33:01.878Z,48
2019-03-30T13:34:02.150Z,49
2019-03-30T13:35:02.078Z,48
2019-03-30T13:36:02.228Z,49
2019-03-30T13:37:01.491Z,48
2019-03-30T13:38:01.736Z,50
2019-03-30T13:39:01.980Z,50
2019-03-30T13:40:01.481Z,50
2019-03-30T13:41:01.727Z,50
2019-03-30T13:42:01.911Z,49
2019-03-30T13:43:02.215Z,51
2019-03-30T13:44:01.433Z,49
2019-03-30T13:45:03.553Z,50
2019-03-30T13:46:01.874Z,51
2019-03-30T13:47:02.022Z,50
2019-03-30T13:48:02.308Z,49
2019-03-30T13:49:01.426Z,49
2019-03-30T13:50:01.725Z,49
2019-03-30T13:51:01.976Z,47
2019-03-30T13:52:02.178Z,45
2019-03-30T13:53:02.398Z,50
2019-03-30T13:54:01.647Z,47
2019-03-30T13:55:01.767Z,47
2019-03-30T13:56:01.683Z,47
2019-03-30T13:57:01.915Z,45
2019-03-30T13:58:02.074Z,46
2019-03-30T13:59:02.397Z,49
2019-03-30T14:00:03.865Z,51
2019-03-30T14:01:01.658Z,47
2019-03-30T14:02:01.909Z,47
2019-03-30T14:03:02.098Z,48
2019-03-30T14:04:02.311Z,49
2019-03-30T14:05:01.613Z,48
2019-03-30T14:06:01.769Z,48
2019-03-30T14:07:01.951Z,45
2019-03-30T14:08:02.163Z,47
2019-03-30T14:09:02.311Z,47
2019-03-30T14:10:02.308Z,48
2019-03-30T14:11:01.589Z,47
2019-03-30T14:12:01.694Z,48
2019-03-30T14:13:01.853Z,47
2019-03-30T14:14:02.065Z,48
2019-03-30T14:15:02.264Z,47